Sand Springs, Oklahoma
Current Conditions -  °F | °C
As of 11:55 PM on Saturday 22 Nov 2014 (Local Time) from KOWP Reporting Station
Overcast Overcast  
Wind Chill: 58°   Ceiling: 600
Heat Index: 58°   Visibility: 10mi
Dew Point: 55°   Wind: 7mph
Humidity: 89%   Direction: 160°SSE
Pressure: 29.69"   Gusts: NA
Location:  36.14°N, 96.11°W
Report Text: KOWP 230555Z AUTO 16006KT 10SM OVC006 15/13 A2969 RMK AO2 60001 T01450127 10153 20142 401560127
Loading
Personal Weather Stations






























Interactive Weather Map New forecast layout! Learn more

10-Day Weather Forecast

Advertisements
Track Severe Weather on mobile